Stratton, Nebraska
Current Conditions -  °F | °C
As of 10:53 PM on Monday 20 Oct 2014 (Local Time) from KIML Reporting Station
Clear Clear  
Wind Chill: 58°   Ceiling: Unl
Heat Index: 58°   Visibility: 10mi
Dew Point: 37°   Wind: 12mph
Humidity: 46%   Direction: 190°S
Pressure: 30.07"   Gusts: NA
Location:  40.15°N, 101.23°W
Report Text: KIML 210353Z AUTO 19010KT 10SM CLR 14/03 A3007 RMK AO2 SLP171 T01440028
Loading
Personal Weather Stations






























Interactive Weather Map
Tropical Storm Tracking
New forecast layout! Learn more

10-Day Weather Forecast

Advertisements
Track Severe Weather on mobile